.
WxDataArchive / Data Records for 2006-04-04
2006-04-03 April 2006 2006-04-05

Data Records for Tuesday, 04 April 2006

Time	Temp	Chill	HIndex	Humid	Dewpt	 Wind 	HiWind	WindDir	Rain 	Barom 
-----	----	-----	------	-----	-----	------	------	-------	-----	----- 
00:00	37.6	37.6	37.6	74	30.1	1	3	225	0.00	30.009 
00:05	37.6	37.6	37.6	74	30.1	1	4	248	0.00	30.009 
00:10	37.6	37.6	37.6	74	30.1	1	5	248	0.00	30.009 
00:15	37.5	37.5	37.5	75	30.3	1	2	248	0.00	30.007 
00:20	37.2	37.2	37.2	75	30.0	1	3	248	0.00	30.007 
00:25	37.0	37.0	37.0	75	29.8	1	4	248	0.00	30.007 
00:30	37.0	37.0	37.0	75	29.8	1	2	292	0.00	30.012 
00:35	37.0	37.0	37.0	75	29.8	1	3	248	0.00	30.012 
00:40	36.9	36.9	36.9	76	30.1	1	2	248	0.00	30.012 
00:45	36.8	36.8	36.8	76	30.0	1	2	248	0.00	30.011 
00:50	36.8	36.8	36.8	76	30.0	1	2	248	0.00	30.011 
00:55	36.8	36.8	36.8	76	30.0	1	2	248	0.00	30.011 
01:00	36.8	36.8	36.8	76	30.0	1	3	248	0.00	30.009 
01:05	36.6	36.6	36.6	76	29.8	0	2	248	0.00	30.009 
01:10	36.3	36.3	36.3	77	29.8	1	2	248	0.00	30.009 
01:15	36.3	36.3	36.3	77	29.8	1	3	248	0.00	30.009 
01:20	36.2	36.2	36.2	77	29.7	0	2	248	0.00	30.009 
01:25	36.0	36.0	36.0	77	29.5	0	3	248	0.00	30.009 
01:30	36.0	36.0	36.0	77	29.5	0	2	248	0.00	30.012 
01:35	35.9	35.9	35.9	77	29.4	0	2	248	0.00	30.012 
01:40	35.9	35.9	35.9	77	29.4	0	2	248	0.00	30.012 
01:45	35.8	35.8	35.8	77	29.3	0	2	248	0.00	30.009 
01:50	35.8	35.8	35.8	77	29.3	0	3	248	0.00	30.009 
01:55	35.8	35.8	35.8	77	29.3	1	3	248	0.00	30.009 
02:00	35.8	35.8	35.8	77	29.3	0	2	248	0.00	30.004 
02:05	35.6	35.6	35.6	78	29.4	0	2	248	0.00	30.004 
02:10	35.5	35.5	35.5	78	29.3	0	3	248	0.00	30.004 
02:15	35.3	35.3	35.3	79	29.4	0	2	248	0.00	30.011 
02:20	35.3	35.3	35.3	79	29.4	1	2	248	0.00	30.011 
02:25	35.3	35.3	35.3	79	29.4	0	2	248	0.00	30.011 
02:30	35.3	35.3	35.3	79	29.4	1	2	248	0.00	30.007 
02:35	35.2	35.2	35.2	80	29.7	0	2	248	0.00	30.007 
02:40	35.0	35.0	35.0	80	29.5	1	2	248	0.00	30.007 
02:45	34.9	34.9	34.9	80	29.4	0	2	248	0.00	30.003 
02:50	34.6	34.6	34.6	81	29.4	0	1	248	0.00	30.003 
02:55	34.3	34.3	34.3	81	29.1	0	0	---	0.00	30.003 
03:00	34.0	34.0	34.0	82	29.1	0	1	248	0.00	30.005 
03:05	33.8	33.8	33.8	82	28.9	0	1	248	0.00	30.005 
03:10	33.5	33.5	33.5	83	28.9	0	0	---	0.00	30.005 
03:15	33.4	33.4	33.4	83	28.8	0	1	248	0.00	30.003 
03:20	33.4	33.4	33.4	83	28.8	0	1	248	0.00	30.003 
03:25	33.2	33.2	33.2	84	28.9	0	0	---	0.00	30.003 
03:30	33.1	33.1	33.1	84	28.8	0	0	---	0.00	30.004 
03:35	33.1	33.1	33.1	84	28.8	0	1	248	0.00	30.004 
03:40	32.9	32.9	32.9	84	28.6	0	1	248	0.00	30.004 
03:45	32.8	32.8	32.8	84	28.5	0	0	---	0.00	30.005 
03:50	32.8	32.8	32.8	84	28.5	0	0	---	0.00	30.005 
03:55	32.7	32.7	32.7	84	28.4	0	1	248	0.00	30.005 
04:00	32.7	32.7	32.7	84	28.4	0	1	248	0.00	30.005 
04:05	32.7	32.7	32.7	84	28.4	0	0	---	0.00	30.005 
04:10	32.7	32.7	32.7	84	28.4	0	1	248	0.00	30.005 
04:15	32.7	32.7	32.7	84	28.4	0	0	---	0.00	30.003 
04:20	32.5	32.5	32.5	84	28.2	0	0	---	0.00	30.003 
04:25	32.4	32.4	32.4	84	28.1	0	0	---	0.00	30.003 
04:30	32.2	32.2	32.2	84	27.9	0	0	---	0.00	30.005 
04:35	32.1	32.1	32.1	84	27.8	0	0	---	0.00	30.005 
04:40	32.1	32.1	32.1	84	27.8	0	0	---	0.00	30.005 
04:45	31.9	31.9	31.9	85	27.9	0	0	---	0.00	30.004 
04:50	31.9	31.9	31.9	85	27.9	0	0	---	0.00	30.004 
04:55	31.6	31.6	31.6	85	27.6	0	0	---	0.00	30.004 
05:00	31.5	31.5	31.5	85	27.5	0	0	---	0.00	30.001 
05:05	31.2	31.2	31.2	85	27.2	0	0	---	0.00	30.001 
05:10	31.0	31.0	31.0	86	27.3	0	1	248	0.00	30.001 
05:15	31.2	31.2	31.2	86	27.5	0	0	---	0.00	29.999 
05:20	31.2	31.2	31.2	85	27.2	0	0	---	0.00	29.999 
05:25	31.2	31.2	31.2	85	27.2	0	0	---	0.00	29.999 
05:30	31.2	31.2	31.2	85	27.2	0	0	---	0.00	29.998 
05:35	31.2	31.2	31.2	85	27.2	0	0	---	0.00	29.998 
05:40	31.3	31.3	31.3	84	27.0	0	1	248	0.00	29.998 
05:45	31.5	31.5	31.5	84	27.2	0	0	---	0.00	29.996 
05:50	31.6	31.6	31.6	84	27.3	0	1	248	0.00	29.996 
05:55	31.8	31.8	31.8	83	27.2	0	1	248	0.00	29.996 
06:00	31.9	31.9	31.9	82	27.0	0	1	248	0.00	29.997 
06:05	32.2	32.2	32.2	82	27.3	0	1	248	0.00	29.997 
06:10	32.2	32.2	32.2	81	27.0	0	1	248	0.00	29.997 
06:15	32.2	32.2	32.2	81	27.0	0	1	248	0.00	29.997 
06:20	32.1	32.1	32.1	81	26.9	0	1	248	0.00	29.997 
06:25	32.1	32.1	32.1	81	26.9	0	1	248	0.00	29.997 
06:30	31.9	31.9	31.9	81	26.7	0	0	---	0.00	29.997 
06:35	31.9	31.9	31.9	81	26.7	0	0	---	0.00	29.997 
06:40	31.8	31.8	31.8	81	26.6	0	0	---	0.00	29.997 
06:45	31.8	31.8	31.8	81	26.6	0	1	248	0.00	29.998 
06:50	31.8	31.8	31.8	80	26.3	0	1	248	0.00	29.998 
06:55	31.8	31.8	31.8	80	26.3	0	1	248	0.00	29.998 
07:00	31.8	31.8	31.8	80	26.3	0	1	248	0.00	30.001 
07:05	31.8	31.8	31.8	79	26.0	0	2	248	0.00	30.001 
07:10	31.9	31.9	31.9	79	26.1	0	2	248	0.00	30.001 
07:15	32.1	32.1	32.1	79	26.3	0	2	248	0.00	30.003 
07:20	32.2	32.2	32.2	78	26.1	1	2	248	0.00	30.003 
07:25	32.5	32.5	32.5	77	26.1	1	3	248	0.00	30.003 
07:30	32.7	32.7	32.7	77	26.3	1	3	248	0.00	30.001 
07:35	32.8	32.8	32.8	76	26.1	1	2	248	0.00	30.001 
07:40	32.8	32.8	32.8	76	26.1	1	4	248	0.00	30.001 
07:45	33.1	33.1	33.1	75	26.1	1	2	248	0.00	30.002 
07:50	33.2	33.2	33.2	75	26.2	1	3	248	0.00	30.002 
07:55	33.5	33.5	33.5	74	26.1	1	5	248	0.00	30.002 
08:00	33.8	33.8	33.8	74	26.4	1	4	248	0.00	30.003 
08:05	34.1	34.1	34.1	73	26.4	1	3	248	0.00	30.003 
08:10	34.4	34.4	34.4	73	26.7	1	4	248	0.00	30.003 
08:15	34.9	34.9	34.9	71	26.5	2	5	248	0.00	30.003 
08:20	35.3	35.3	35.3	70	26.5	2	5	248	0.00	30.003 
08:25	35.8	35.8	35.8	69	26.6	2	6	248	0.00	30.003 
08:30	36.2	36.2	36.2	68	26.7	2	6	270	0.00	30.003 
08:35	36.5	36.5	36.5	67	26.6	2	5	248	0.00	30.003 
08:40	36.9	36.9	36.9	66	26.6	2	4	270	0.00	30.003 
08:45	37.5	37.5	37.5	65	26.8	3	6	270	0.00	30.001 
08:50	37.9	37.9	37.9	65	27.2	2	4	270	0.00	30.001 
08:55	38.5	38.5	38.5	64	27.4	2	5	270	0.00	30.001 
09:00	38.9	38.9	38.9	63	27.4	2	6	248	0.00	29.998 
09:05	39.2	39.2	39.2	61	26.9	2	6	248	0.00	29.998 
09:10	39.3	39.3	39.3	61	27.0	3	6	270	0.00	29.998 
09:15	39.6	39.6	39.6	61	27.3	3	6	248	0.00	29.997 
09:20	39.9	39.9	39.9	62	28.0	3	7	248	0.00	29.997 
09:25	40.2	40.2	40.2	61	27.8	3	9	270	0.00	29.997 
09:30	40.6	40.6	40.6	61	28.2	3	6	270	0.00	29.995 
09:35	40.8	40.8	40.8	61	28.4	3	10	270	0.00	29.995 
09:40	41.2	41.2	41.2	60	28.4	3	5	270	0.00	29.995 
09:45	41.5	41.5	41.5	59	28.3	3	6	270	0.00	29.991 
09:50	41.6	39.2	41.6	58	27.9	4	7	270	0.00	29.991 
09:55	41.8	41.8	41.8	59	28.5	3	5	270	0.00	29.991 
10:00	42.2	42.2	42.2	60	29.3	3	6	292	0.00	29.990 
10:05	42.6	42.6	42.6	59	29.3	3	6	270	0.00	29.990 
10:10	42.9	42.9	42.9	57	28.7	3	8	270	0.00	29.990 
10:15	43.1	43.1	43.1	58	29.3	3	6	270	0.00	29.990 
10:20	43.5	43.5	43.5	54	28.0	3	11	270	0.00	29.990 
10:25	43.9	43.9	43.9	55	28.8	3	7	270	0.00	29.990 
10:30	43.9	41.8	43.9	55	28.8	4	9	270	0.00	29.986 
10:35	44.5	44.5	44.5	57	30.2	3	6	270	0.00	29.986 
10:40	44.8	44.8	44.8	55	29.6	3	7	270	0.00	29.986 
10:45	45.2	43.3	45.2	53	29.1	4	7	270	0.00	29.981 
10:50	45.1	45.1	45.1	54	29.5	3	6	270	0.00	29.981 
10:55	45.2	43.3	45.2	52	28.6	4	11	270	0.00	29.981 
11:00	45.4	43.6	45.4	55	30.2	4	7	270	0.00	29.977 
11:05	45.4	42.8	45.4	51	28.3	5	10	270	0.00	29.977 
11:10	45.7	43.2	45.7	52	29.1	5	11	270	0.00	29.977 
11:15	45.8	44.0	45.8	50	28.2	4	10	270	0.00	29.969 
11:20	46.2	44.5	46.2	52	29.6	4	9	270	0.00	29.969 
11:25	47.1	47.1	47.1	53	30.9	3	7	270	0.00	29.969 
11:30	47.1	44.8	47.1	48	28.4	5	17	270	0.00	29.965 
11:35	46.8	43.9	46.8	45	26.6	6	12	270	0.00	29.965 
11:40	46.7	43.2	46.7	44	26.0	7	15	270	0.00	29.965 
11:45	46.8	43.9	46.8	44	26.0	6	11	270	0.00	29.963 
11:50	47.3	45.0	47.3	47	28.1	5	11	270	0.00	29.963 
11:55	47.6	45.4	47.6	44	26.8	5	13	270	0.00	29.963 
12:00	47.4	44.6	47.4	44	26.6	6	19	270	0.00	29.958 
12:05	47.9	45.2	47.9	43	26.5	6	15	270	0.00	29.958 
12:10	47.7	44.9	47.7	45	27.4	6	13	270	0.00	29.958 
12:15	48.6	47.3	48.6	43	27.1	4	8	270	0.00	29.955 
12:20	49.1	47.8	49.1	46	29.2	4	11	270	0.00	29.955 
12:25	49.1	46.6	49.1	41	26.4	6	11	270	0.00	29.955 
12:30	48.8	46.2	48.8	40	25.6	6	11	270	0.00	29.951 
12:35	48.9	46.9	48.9	42	26.8	5	11	270	0.00	29.951 
12:40	48.9	46.9	48.9	40	25.7	5	12	270	0.00	29.951 
12:45	48.9	46.9	48.9	43	27.4	5	12	270	0.00	29.946 
12:50	49.5	47.6	49.5	41	26.8	5	14	270	0.00	29.946 
12:55	49.6	47.7	49.6	43	28.0	5	11	270	0.00	29.946 
13:00	50.1	50.1	50.1	44	29.0	5	10	270	0.00	29.938 
13:05	50.1	50.1	50.1	41	27.3	5	14	270	0.00	29.938 
13:10	50.5	50.5	50.5	39	26.5	4	12	270	0.00	29.938 
13:15	50.5	50.5	50.5	42	28.3	4	7	270	0.00	29.932 
13:20	50.7	50.7	50.7	40	27.3	5	12	270	0.00	29.932 
13:25	49.9	46.6	49.9	38	25.3	8	15	270	0.00	29.932 
13:30	50.1	50.1	50.1	39	26.1	6	11	270	0.00	29.930 
13:35	50.5	50.5	50.5	38	25.9	4	10	270	0.00	29.930 
13:40	50.4	50.4	50.4	38	25.8	6	12	270	0.00	29.930 
13:45	50.2	50.2	50.2	39	26.2	6	13	270	0.00	29.925 
13:50	50.4	50.4	50.4	39	26.4	5	14	270	0.00	29.925 
13:55	50.2	50.2	50.2	39	26.2	7	19	270	0.00	29.925 
14:00	50.4	50.4	50.4	38	25.8	6	16	270	0.00	29.916 
14:05	50.7	50.7	50.7	36	24.7	6	15	270	0.00	29.916 
14:10	51.1	51.1	51.1	36	25.1	5	12	270	0.00	29.916 
14:15	51.4	51.4	51.4	33	23.3	5	15	270	0.00	29.914 
14:20	51.6	51.6	51.6	33	23.4	4	9	292	0.00	29.914 
14:25	51.6	51.6	51.6	35	24.9	6	16	270	0.00	29.914 
14:30	51.3	51.3	51.3	28	19.3	8	18	270	0.00	29.912 
14:35	51.3	51.3	51.3	29	20.1	5	13	292	0.00	29.912 
14:40	51.1	51.1	51.1	32	22.3	6	12	292	0.00	29.912 
14:45	51.3	51.3	51.3	29	20.1	6	12	270	0.00	29.902 
14:50	51.3	51.3	51.3	31	21.7	6	14	292	0.00	29.902 
14:55	51.7	51.7	51.7	30	21.3	6	15	270	0.00	29.902 
15:00	51.4	51.4	51.4	31	21.8	7	14	270	0.00	29.901 
15:05	52.2	52.2	52.2	29	20.9	5	11	270	0.00	29.901 
15:10	52.0	52.0	52.0	28	19.9	5	12	292	0.00	29.901 
15:15	52.3	52.3	52.3	29	21.0	6	16	270	0.00	29.888 
15:20	52.2	52.2	52.2	27	19.2	7	14	270	0.00	29.888 
15:25	51.4	51.4	51.4	26	17.7	6	13	270	0.00	29.888 
15:30	51.9	51.9	51.9	29	20.7	7	14	270	0.00	29.894 
15:35	51.9	51.9	51.9	26	18.1	7	16	270	0.00	29.894 
15:40	52.2	52.2	52.2	27	19.2	6	11	270	0.00	29.894 
15:45	52.0	52.0	52.0	29	20.7	5	15	270	0.00	29.888 
15:50	52.0	52.0	52.0	31	22.3	6	16	270	0.00	29.888 
15:55	51.7	51.7	51.7	27	18.8	7	15	270	0.00	29.888 
16:00	51.7	51.7	51.7	28	19.7	6	14	270	0.00	29.888 
16:05	51.9	51.9	51.9	29	20.7	6	13	270	0.00	29.888 
16:10	51.6	51.6	51.6	28	19.6	6	11	270	0.00	29.888 
16:15	51.0	51.0	51.0	29	19.9	6	15	270	0.00	29.890 
16:20	51.1	51.1	51.1	30	20.8	6	12	270	0.00	29.890 
16:25	51.4	51.4	51.4	33	23.3	5	17	270	0.00	29.890 
16:30	51.4	51.4	51.4	34	24.0	4	14	315	0.00	29.887 
16:35	51.3	51.3	51.3	37	25.9	3	9	292	0.00	29.887 
16:40	51.3	51.3	51.3	35	24.6	4	12	315	0.00	29.887 
16:45	50.8	50.8	50.8	35	24.1	4	11	292	0.00	29.889 
16:50	50.8	50.8	50.8	34	23.5	4	13	315	0.00	29.889 
16:55	50.8	50.8	50.8	35	24.1	4	11	315	0.00	29.889 
17:00	50.5	50.5	50.5	34	23.2	5	12	315	0.00	29.888 
17:05	50.4	50.4	50.4	35	23.8	5	9	292	0.00	29.888 
17:10	50.2	50.2	50.2	35	23.6	6	12	270	0.00	29.888 
17:15	50.5	50.5	50.5	36	24.6	5	12	270	0.00	29.887 
17:20	50.7	50.7	50.7	34	23.4	4	9	270	0.00	29.887 
17:25	50.4	50.4	50.4	35	23.8	4	10	270	0.00	29.887 
17:30	50.4	50.4	50.4	35	23.8	4	13	292	0.00	29.890 
17:35	50.2	50.2	50.2	32	21.5	5	12	270	0.00	29.890 
17:40	50.5	50.5	50.5	35	23.9	4	11	315	0.00	29.890 
17:45	50.5	50.5	50.5	34	23.2	4	13	292	0.00	29.893 
17:50	50.1	50.1	50.1	32	21.4	5	14	292	0.00	29.893 
17:55	49.9	48.8	49.9	34	22.7	4	12	315	0.00	29.893 
18:00	49.9	48.1	49.9	33	22.0	5	10	315	0.00	29.892 
18:05	50.2	50.2	50.2	34	22.9	4	13	270	0.00	29.892 
18:10	49.8	47.4	49.8	31	20.4	6	15	292	0.00	29.892 
18:15	49.8	48.6	49.8	33	21.9	4	10	292	0.00	29.895 
18:20	49.6	48.4	49.6	35	23.1	4	11	292	0.00	29.895 
18:25	49.8	48.6	49.8	34	22.6	4	14	270	0.00	29.895 
18:30	49.9	49.9	49.9	35	23.3	3	7	338	0.00	29.898 
18:35	49.5	48.3	49.5	35	23.0	4	9	315	0.00	29.898 
18:40	49.4	48.2	49.4	36	23.6	4	12	270	0.00	29.898 
18:45	49.4	48.2	49.4	34	22.2	4	10	292	0.00	29.903 
18:50	49.2	47.3	49.2	34	22.0	5	13	292	0.00	29.903 
18:55	48.9	46.9	48.9	36	23.1	5	10	292	0.00	29.903 
19:00	48.9	48.9	48.9	36	23.1	3	6	270	0.00	29.905 
19:05	48.9	48.9	48.9	35	22.5	3	9	292	0.00	29.905 
19:10	48.8	48.8	48.8	35	22.4	3	11	315	0.00	29.905 
19:15	48.5	47.1	48.5	35	22.1	4	10	338	0.00	29.904 
19:20	48.3	46.9	48.3	35	21.9	4	10	315	0.00	29.904 
19:25	48.2	46.8	48.2	34	21.2	4	9	292	0.00	29.904 
19:30	48.0	48.0	48.0	35	21.7	3	10	315	0.00	29.903 
19:35	47.9	47.9	47.9	36	22.2	3	7	338	0.00	29.903 
19:40	47.7	46.2	47.7	36	22.1	4	9	292	0.00	29.903 
19:45	47.6	47.6	47.6	36	22.0	3	10	270	0.00	29.903 
19:50	47.4	47.4	47.4	38	23.1	3	10	292	0.00	29.903 
19:55	47.3	47.3	47.3	39	23.6	2	6	270	0.00	29.903 
20:00	47.1	47.1	47.1	38	22.8	3	7	338	0.00	29.905 
20:05	47.0	47.0	47.0	38	22.7	3	10	315	0.00	29.905 
20:10	46.8	46.8	46.8	39	23.2	2	5	315	0.00	29.905 
20:15	46.5	46.5	46.5	39	22.9	2	5	270	0.00	29.901 
20:20	46.4	46.4	46.4	40	23.4	2	5	270	0.00	29.901 
20:25	46.1	46.1	46.1	41	23.7	1	6	270	0.00	29.901 
20:30	46.1	46.1	46.1	40	23.1	2	11	270	0.00	29.900 
20:35	45.8	45.8	45.8	41	23.5	2	5	270	0.00	29.900 
20:40	45.7	45.7	45.7	41	23.4	1	3	270	0.00	29.900 
20:45	45.4	45.4	45.4	42	23.7	1	4	270	0.00	29.899 
20:50	45.2	45.2	45.2	42	23.5	1	3	292	0.00	29.899 
20:55	45.1	45.1	45.1	43	24.0	0	4	270	0.00	29.899 
21:00	44.8	44.8	44.8	43	23.7	0	2	270	0.00	29.898 
21:05	44.5	44.5	44.5	44	24.0	0	2	270	0.00	29.898 
21:10	44.2	44.2	44.2	45	24.2	0	2	270	0.00	29.898 
21:15	43.8	43.8	43.8	45	23.9	0	2	270	0.00	29.898 
21:20	43.6	43.6	43.6	46	24.2	0	2	270	0.00	29.898 
21:25	43.3	43.3	43.3	47	24.4	0	1	270	0.00	29.898 
21:30	42.9	42.9	42.9	48	24.6	0	0	---	0.00	29.900 
21:35	42.5	42.5	42.5	49	24.7	0	1	270	0.00	29.900 
21:40	42.2	42.2	42.2	50	24.9	0	0	---	0.00	29.900 
21:45	42.1	42.1	42.1	50	24.8	0	1	270	0.00	29.900 
21:50	41.8	41.8	41.8	50	24.5	0	0	---	0.00	29.900 
21:55	41.5	41.5	41.5	52	25.2	0	0	---	0.00	29.900 
22:00	41.1	41.1	41.1	52	24.8	0	0	---	0.00	29.903 
22:05	40.8	40.8	40.8	52	24.6	0	0	---	0.00	29.903 
22:10	40.5	40.5	40.5	54	25.2	0	0	---	0.00	29.903 
22:15	40.2	40.2	40.2	54	24.9	0	0	---	0.00	29.900 
22:20	39.9	39.9	39.9	55	25.1	0	0	---	0.00	29.900 
22:25	39.8	39.8	39.8	55	25.0	0	0	---	0.00	29.900 
22:30	39.6	39.6	39.6	56	25.2	0	1	270	0.00	29.897 
22:35	39.6	39.6	39.6	56	25.2	0	0	---	0.00	29.897 
22:40	39.5	39.5	39.5	57	25.5	0	0	---	0.00	29.897 
22:45	39.2	39.2	39.2	58	25.7	0	0	---	0.00	29.897 
22:50	39.1	39.1	39.1	58	25.6	0	0	---	0.00	29.897 
22:55	38.9	38.9	38.9	58	25.4	0	0	---	0.00	29.897 
23:00	38.9	38.9	38.9	58	25.4	0	0	---	0.00	29.895 
23:05	38.9	38.9	38.9	58	25.4	0	0	---	0.00	29.895 
23:10	38.9	38.9	38.9	58	25.4	0	1	270	0.00	29.895 
23:15	39.1	39.1	39.1	58	25.6	0	1	270	0.00	29.889 
23:20	39.1	39.1	39.1	58	25.6	0	1	270	0.00	29.889 
23:25	38.8	38.8	38.8	58	25.3	0	1	270	0.00	29.889 
23:30	38.6	38.6	38.6	58	25.1	0	2	270	0.00	29.883 
23:35	38.6	38.6	38.6	59	25.5	0	2	270	0.00	29.883 
23:40	38.8	38.8	38.8	59	25.7	1	3	248	0.00	29.883 
23:45	38.9	38.9	38.9	59	25.8	0	3	270	0.00	29.882 
23:50	39.2	39.2	39.2	58	25.7	1	2	270	0.00	29.882 
23:55	39.5	39.5	39.5	57	25.5	2	5	248	0.00	29.882 

CoCoRaHS
IN-AL-39
A2 Web Hosting
Creative Commons License
GoDaddy
Look for:

loaded 2017-10-19 14:42:57 • last modified 2010-11-18 10:43:29
Privacy PolicyDisclaimer
• wx.awcolley.com is powered by PmWiki v.2002016 •
• all content (unless otherwise noted) © 2017 A W Colley